PMF weather

Parma Airport
Parma, Emilia-Romagna, Italy

Public forecast

Using degrees Celsius for public forecast. Weather courtesy of forecast.io.

Current aviation weather report (METAR) for Parma Airport

Retrieved 2020/08/05 13:50 UTC (15 minutes ago):

LIMP 051350Z 07008KT 010V100 9999 FEW040 27/13 Q1013

Aviation forecast (TAF) for Parma Airport

Retrieved 2020/08/05 12:21 UTC (2 hours ago):

TAF LIMP 051100Z 0512/0612 09010KT 9999 SCT060 BECMG 0516/0518 VRB05KT BECMG 0608/0610 09010KT